createdAt,value
2023-03-06T00:00:45.951Z,3.81
2023-03-06T00:03:12.438Z,3.48
2023-03-06T00:05:39.280Z,3.79
2023-03-06T00:08:06.431Z,3.82
2023-03-06T00:10:33.282Z,3.81
2023-03-06T00:13:06.394Z,3.82
2023-03-06T00:15:32.910Z,3.44
2023-03-06T00:17:59.913Z,3.80
2023-03-06T00:20:27.101Z,3.84
2023-03-06T00:22:55.951Z,3.85
2023-03-06T00:25:23.317Z,3.69
2023-03-06T00:27:50.086Z,3.48
2023-03-06T00:30:20.361Z,3.63
2023-03-06T00:32:47.328Z,3.85
2023-03-06T00:35:14.571Z,3.70
2023-03-06T00:37:41.579Z,3.72
2023-03-06T00:40:11.859Z,3.64
2023-03-06T00:42:38.388Z,3.37
2023-03-06T00:45:05.326Z,3.73
2023-03-06T00:47:32.068Z,3.65
2023-03-06T00:49:58.725Z,3.74
2023-03-06T00:52:25.220Z,3.77
2023-03-06T00:54:51.823Z,3.38
2023-03-06T00:57:18.597Z,3.68
2023-03-06T00:59:46.062Z,3.65
2023-03-06T01:02:12.606Z,3.16
2023-03-06T01:04:39.703Z,3.68
2023-03-06T01:07:06.269Z,3.50
2023-03-06T01:09:32.839Z,3.25
2023-03-06T01:11:59.373Z,3.38
2023-03-06T01:14:26.426Z,3.02
2023-03-06T01:16:52.928Z,3.26
2023-03-06T01:19:19.414Z,3.31
2023-03-06T01:21:46.078Z,2.64
2023-03-06T01:24:12.587Z,2.15
2023-03-06T01:26:39.205Z,3.46
2023-03-06T01:29:06.455Z,3.38
2023-03-06T01:31:33.409Z,3.46
2023-03-06T01:34:00.149Z,3.30
2023-03-06T01:36:26.580Z,3.45
2023-03-06T01:38:53.250Z,3.31
2023-03-06T01:41:21.283Z,3.46
2023-03-06T01:43:49.136Z,3.63
2023-03-06T01:46:44.468Z,3.60
2023-03-06T01:49:21.829Z,3.25
2023-03-06T01:51:52.609Z,3.35
2023-03-06T01:54:33.148Z,3.52
2023-03-06T01:57:05.657Z,3.56
2023-03-06T01:59:34.765Z,3.50
2023-03-06T02:02:03.583Z,3.34
2023-03-06T02:04:31.636Z,3.06
2023-03-06T02:07:00.544Z,3.46
2023-03-06T02:09:30.273Z,3.26
2023-03-06T02:11:57.108Z,3.35
2023-03-06T02:14:24.072Z,3.37
2023-03-06T02:16:51.355Z,3.45
2023-03-06T02:19:29.095Z,3.52
2023-03-06T02:21:55.858Z,3.36
2023-03-06T02:24:33.148Z,2.95
2023-03-06T02:27:02.824Z,3.40
2023-03-06T02:29:30.845Z,3.37
2023-03-06T02:31:57.774Z,3.45
2023-03-06T02:34:24.223Z,3.38
2023-03-06T02:36:54.008Z,2.69
2023-03-06T02:39:25.798Z,3.28
2023-03-06T02:41:52.480Z,3.35
2023-03-06T02:44:19.096Z,3.29
2023-03-06T02:46:45.664Z,3.42
2023-03-06T02:49:12.111Z,3.39
2023-03-06T02:51:38.660Z,3.51
2023-03-06T02:54:05.167Z,3.61
2023-03-06T02:56:31.625Z,3.65
2023-03-06T02:58:58.405Z,3.38
2023-03-06T03:01:24.942Z,3.36
2023-03-06T03:03:51.510Z,3.58
2023-03-06T03:06:18.052Z,3.39
2023-03-06T03:08:44.728Z,3.17
2023-03-06T03:11:12.247Z,2.95
2023-03-06T03:13:39.034Z,2.98
2023-03-06T03:16:08.158Z,2.49
2023-03-06T03:18:35.584Z,2.42
2023-03-06T03:21:06.620Z,2.68
2023-03-06T03:23:33.101Z,3.00
2023-03-06T03:26:15.151Z,2.95
2023-03-06T03:28:41.647Z,2.87
2023-03-06T03:31:09.758Z,3.22
2023-03-06T03:33:36.843Z,3.35
2023-03-06T03:36:05.461Z,3.25
2023-03-06T03:38:32.642Z,3.37
2023-03-06T03:41:01.055Z,3.40
2023-03-06T03:43:27.926Z,3.46
2023-03-06T03:45:54.547Z,2.73
2023-03-06T03:48:21.033Z,3.11
2023-03-06T03:50:47.616Z,3.11
2023-03-06T03:53:14.925Z,3.25
2023-03-06T03:55:41.456Z,3.29
2023-03-06T03:58:07.915Z,3.31
2023-03-06T04:00:34.481Z,2.94
2023-03-06T04:03:00.963Z,3.16
2023-03-06T04:05:27.536Z,3.18
2023-03-06T04:07:53.991Z,3.16
2023-03-06T04:10:20.841Z,3.23
2023-03-06T04:12:47.297Z,3.19
2023-03-06T04:15:13.818Z,3.18
2023-03-06T04:17:40.359Z,3.19
2023-03-06T04:20:07.551Z,3.14
2023-03-06T04:22:34.060Z,2.83
2023-03-06T04:25:01.122Z,3.26
2023-03-06T04:27:27.704Z,2.83
2023-03-06T04:29:56.479Z,2.85
2023-03-06T04:32:24.227Z,3.24
2023-03-06T04:34:51.061Z,3.17
2023-03-06T04:37:23.895Z,2.93
2023-03-06T04:39:50.812Z,2.87
2023-03-06T04:42:17.432Z,2.98
2023-03-06T04:44:44.432Z,2.95
2023-03-06T04:47:11.365Z,2.94
2023-03-06T04:49:38.007Z,3.01
2023-03-06T04:52:05.166Z,2.88
2023-03-06T04:54:32.278Z,2.91
2023-03-06T04:56:58.921Z,2.66
2023-03-06T04:59:25.549Z,2.18
2023-03-06T05:01:52.146Z,2.72
2023-03-06T05:04:18.722Z,2.60
2023-03-06T05:06:45.305Z,2.69
2023-03-06T05:09:11.840Z,2.64
2023-03-06T05:11:38.356Z,2.62
2023-03-06T05:14:04.809Z,2.57
2023-03-06T05:16:31.589Z,2.24
2023-03-06T05:18:58.084Z,1.93
2023-03-06T05:21:24.529Z,2.00
2023-03-06T05:23:51.033Z,1.39
2023-03-06T05:26:17.621Z,1.93
2023-03-06T05:28:44.210Z,2.06
2023-03-06T05:31:10.799Z,2.01
2023-03-06T05:33:37.423Z,2.17
2023-03-06T05:36:04.416Z,2.13
2023-03-06T05:38:32.407Z,2.05
2023-03-06T05:40:59.060Z,2.04
2023-03-06T05:43:25.584Z,1.94
2023-03-06T05:46:00.263Z,1.92
2023-03-06T05:48:26.876Z,1.87
2023-03-06T05:50:59.595Z,1.97
2023-03-06T05:53:26.952Z,1.81
2023-03-06T05:56:09.068Z,1.66
2023-03-06T05:58:36.509Z,1.62
2023-03-06T06:01:30.328Z,1.64
2023-03-06T06:03:56.824Z,1.68
2023-03-06T06:06:23.385Z,1.70
2023-03-06T06:08:49.962Z,1.64
2023-03-06T06:11:18.391Z,1.54
2023-03-06T06:13:44.878Z,1.56
2023-03-06T06:16:15.821Z,1.35
2023-03-06T06:18:43.201Z,1.51
2023-03-06T06:21:11.525Z,1.59
2023-03-06T06:23:38.073Z,1.78
2023-03-06T06:26:06.794Z,1.72
2023-03-06T06:28:35.401Z,1.50
2023-03-06T06:31:08.457Z,1.93
2023-03-06T06:33:35.022Z,2.14
2023-03-06T06:36:01.517Z,1.98
2023-03-06T06:38:28.100Z,1.98
2023-03-06T06:41:27.151Z,1.97
2023-03-06T06:43:41.100Z,1.54
2023-03-06T06:46:36.472Z,2.07
2023-03-06T06:48:56.996Z,1.82
2023-03-06T06:51:23.593Z,2.02
2023-03-06T06:53:53.379Z,2.02
2023-03-06T06:56:19.855Z,2.16
2023-03-06T06:58:46.306Z,2.43
2023-03-06T07:01:13.800Z,2.72
2023-03-06T07:03:40.867Z,2.93
2023-03-06T07:06:07.857Z,3.02
2023-03-06T07:08:34.925Z,2.96
2023-03-06T07:11:10.606Z,3.22
2023-03-06T07:13:37.140Z,2.96
2023-03-06T07:16:03.960Z,2.84
2023-03-06T07:18:30.793Z,2.58
2023-03-06T07:21:00.372Z,2.21
2023-03-06T07:23:27.869Z,2.79
2023-03-06T07:25:55.283Z,2.87
2023-03-06T07:28:21.952Z,3.06
2023-03-06T07:30:48.567Z,3.21
2023-03-06T07:33:16.409Z,3.11
2023-03-06T07:35:43.457Z,3.59
2023-03-06T07:38:10.265Z,3.89
2023-03-06T07:40:38.923Z,4.00
2023-03-06T07:43:18.861Z,4.13
2023-03-06T07:45:47.055Z,3.55
2023-03-06T07:48:14.884Z,3.65
2023-03-06T07:50:42.071Z,3.81
2023-03-06T07:53:10.826Z,3.95
2023-03-06T07:55:40.577Z,4.03
2023-03-06T07:58:07.123Z,3.94
2023-03-06T08:00:33.592Z,4.15
2023-03-06T08:03:00.120Z,4.51
2023-03-06T08:05:26.730Z,4.24
2023-03-06T08:07:53.338Z,3.72
2023-03-06T08:10:20.058Z,3.62
2023-03-06T08:12:46.639Z,3.96
2023-03-06T08:15:13.301Z,3.93
2023-03-06T08:17:40.385Z,4.06
2023-03-06T08:20:08.010Z,4.09
2023-03-06T08:22:34.889Z,4.06
2023-03-06T08:25:01.986Z,4.32
2023-03-06T08:27:28.602Z,4.59
2023-03-06T08:29:55.058Z,4.75
2023-03-06T08:32:21.685Z,4.31
2023-03-06T08:34:48.325Z,4.55
2023-03-06T08:37:14.818Z,4.83
2023-03-06T08:39:41.313Z,4.77
2023-03-06T08:42:09.879Z,4.53
2023-03-06T08:44:36.708Z,4.14
2023-03-06T08:47:03.916Z,4.71
2023-03-06T08:49:30.692Z,4.36
2023-03-06T08:51:57.311Z,4.72
2023-03-06T08:54:24.100Z,4.70
2023-03-06T08:56:50.675Z,4.72
2023-03-06T08:59:17.191Z,4.55
2023-03-06T09:01:45.249Z,3.74
2023-03-06T09:04:11.987Z,4.03
2023-03-06T09:06:42.320Z,4.56
2023-03-06T09:09:09.562Z,5.02
2023-03-06T09:11:36.705Z,5.15
2023-03-06T09:14:03.602Z,4.73
2023-03-06T09:16:30.186Z,5.07
2023-03-06T09:18:57.971Z,5.06
2023-03-06T09:21:26.245Z,5.34
2023-03-06T09:23:52.748Z,5.95
2023-03-06T09:26:19.437Z,5.61
2023-03-06T09:28:46.367Z,5.74
2023-03-06T09:31:18.292Z,5.78
2023-03-06T09:33:45.491Z,5.46
2023-03-06T09:36:17.678Z,5.83
2023-03-06T09:38:45.929Z,5.39
2023-03-06T09:41:41.642Z,5.99
2023-03-06T09:44:15.922Z,5.04
2023-03-06T09:47:03.146Z,6.16
2023-03-06T09:49:51.723Z,6.06
2023-03-06T09:52:36.654Z,6.27
2023-03-06T09:55:19.493Z,6.78
2023-03-06T09:58:01.372Z,7.59
2023-03-06T10:00:41.935Z,7.71
2023-03-06T10:03:22.281Z,8.00
2023-03-06T10:06:07.042Z,7.34
2023-03-06T10:08:43.854Z,6.77
2023-03-06T10:11:13.407Z,7.06
2023-03-06T10:13:46.229Z,6.73
2023-03-06T10:16:32.678Z,6.49
2023-03-06T10:19:07.329Z,8.69
2023-03-06T10:21:54.850Z,9.61
2023-03-06T10:24:31.995Z,8.55
2023-03-06T10:27:10.660Z,8.55
2023-03-06T12:49:12.305Z,10.00
2023-03-06T12:51:40.312Z,10.27
